sensor_id;sensor_type;location;lat;lon;timestamp;temperature;humidity
16040;DHT22;8124;48.634;8.120;2022-08-21T00:00:30;21.50;99.90
16040;DHT22;8124;48.634;8.120;2022-08-21T00:05:36;21.70;99.90
16040;DHT22;8124;48.634;8.120;2022-08-21T00:10:42;21.90;99.90
16040;DHT22;8124;48.634;8.120;2022-08-21T00:15:47;21.50;99.90
16040;DHT22;8124;48.634;8.120;2022-08-21T00:20:50;21.50;99.90
16040;DHT22;8124;48.634;8.120;2022-08-21T00:25:59;21.50;99.90
16040;DHT22;8124;48.634;8.120;2022-08-21T00:31:02;21.60;99.90
16040;DHT22;8124;48.634;8.120;2022-08-21T00:36:06;21.40;99.90
16040;DHT22;8124;48.634;8.120;2022-08-21T00:41:11;21.30;99.90
16040;DHT22;8124;48.634;8.120;2022-08-21T00:46:35;21.30;99.90
16040;DHT22;8124;48.634;8.120;2022-08-21T00:51:43;21.10;99.90
16040;DHT22;8124;48.634;8.120;2022-08-21T00:56:51;21.00;99.90
16040;DHT22;8124;48.634;8.120;2022-08-21T01:01:55;21.00;99.90
16040;DHT22;8124;48.634;8.120;2022-08-21T01:06:58;21.20;99.90
16040;DHT22;8124;48.634;8.120;2022-08-21T01:12:03;21.10;99.90
16040;DHT22;8124;48.634;8.120;2022-08-21T01:17:07;20.90;99.90
16040;DHT22;8124;48.634;8.120;2022-08-21T01:22:12;20.70;99.90
16040;DHT22;8124;48.634;8.120;2022-08-21T01:27:15;20.70;99.90
16040;DHT22;8124;48.634;8.120;2022-08-21T01:32:19;20.80;99.90
16040;DHT22;8124;48.634;8.120;2022-08-21T01:37:23;20.60;99.90
16040;DHT22;8124;48.634;8.120;2022-08-21T01:42:27;20.40;99.90
16040;DHT22;8124;48.634;8.120;2022-08-21T01:47:30;20.40;99.90
16040;DHT22;8124;48.634;8.120;2022-08-21T01:52:36;20.50;99.90
16040;DHT22;8124;48.634;8.120;2022-08-21T01:57:39;20.30;99.90
16040;DHT22;8124;48.634;8.120;2022-08-21T02:02:44;19.70;99.90
16040;DHT22;8124;48.634;8.120;2022-08-21T02:07:50;19.60;99.90
16040;DHT22;8124;48.634;8.120;2022-08-21T02:12:53;20.10;99.90
16040;DHT22;8124;48.634;8.120;2022-08-21T02:17:58;20.30;99.90
16040;DHT22;8124;48.634;8.120;2022-08-21T02:23:06;20.10;99.90
16040;DHT22;8124;48.634;8.120;2022-08-21T02:28:11;20.10;99.90
16040;DHT22;8124;48.634;8.120;2022-08-21T02:33:15;20.20;99.90
16040;DHT22;8124;48.634;8.120;2022-08-21T02:38:22;20.20;99.90
16040;DHT22;8124;48.634;8.120;2022-08-21T02:43:26;20.00;99.90
16040;DHT22;8124;48.634;8.120;2022-08-21T02:48:31;19.90;99.90
16040;DHT22;8124;48.634;8.120;2022-08-21T02:53:36;19.80;99.90
16040;DHT22;8124;48.634;8.120;2022-08-21T02:58:41;19.70;99.90
16040;DHT22;8124;48.634;8.120;2022-08-21T03:03:46;19.60;99.90
16040;DHT22;8124;48.634;8.120;2022-08-21T03:08:52;19.70;99.90
16040;DHT22;8124;48.634;8.120;2022-08-21T03:13:55;19.40;99.90
16040;DHT22;8124;48.634;8.120;2022-08-21T03:19:01;19.30;99.90
16040;DHT22;8124;48.634;8.120;2022-08-21T03:24:06;19.20;99.90
16040;DHT22;8124;48.634;8.120;2022-08-21T03:29:10;19.30;99.90
16040;DHT22;8124;48.634;8.120;2022-08-21T03:34:13;19.40;99.90
16040;DHT22;8124;48.634;8.120;2022-08-21T03:39:18;19.60;99.90
16040;DHT22;8124;48.634;8.120;2022-08-21T03:44:21;19.50;99.90
16040;DHT22;8124;48.634;8.120;2022-08-21T03:49:25;19.00;99.90
16040;DHT22;8124;48.634;8.120;2022-08-21T03:54:29;19.10;99.90
16040;DHT22;8124;48.634;8.120;2022-08-21T03:59:32;19.10;99.90
16040;DHT22;8124;48.634;8.120;2022-08-21T04:04:35;19.20;99.90
16040;DHT22;8124;48.634;8.120;2022-08-21T04:09:40;19.20;99.90
16040;DHT22;8124;48.634;8.120;2022-08-21T04:14:43;19.10;99.90
16040;DHT22;8124;48.634;8.120;2022-08-21T04:19:46;19.20;99.90
16040;DHT22;8124;48.634;8.120;2022-08-21T04:24:55;18.80;99.90
16040;DHT22;8124;48.634;8.120;2022-08-21T04:29:59;18.70;99.90
16040;DHT22;8124;48.634;8.120;2022-08-21T04:35:04;18.70;99.90
16040;DHT22;8124;48.634;8.120;2022-08-21T04:40:11;18.70;99.90
16040;DHT22;8124;48.634;8.120;2022-08-21T04:45:16;18.70;99.90
16040;DHT22;8124;48.634;8.120;2022-08-21T04:50:24;18.20;99.90
16040;DHT22;8124;48.634;8.120;2022-08-21T04:55:39;18.20;99.90
16040;DHT22;8124;48.634;8.120;2022-08-21T05:00:44;18.40;99.90
16040;DHT22;8124;48.634;8.120;2022-08-21T05:05:48;18.40;99.90
16040;DHT22;8124;48.634;8.120;2022-08-21T05:10:53;18.50;99.90
16040;DHT22;8124;48.634;8.120;2022-08-21T05:16:01;18.40;99.90
16040;DHT22;8124;48.634;8.120;2022-08-21T05:21:04;18.50;99.90
16040;DHT22;8124;48.634;8.120;2022-08-21T05:26:09;18.50;99.90
16040;DHT22;8124;48.634;8.120;2022-08-21T05:31:19;18.60;99.90
16040;DHT22;8124;48.634;8.120;2022-08-21T05:36:22;18.50;99.90
16040;DHT22;8124;48.634;8.120;2022-08-21T05:41:26;18.10;99.90
16040;DHT22;8124;48.634;8.120;2022-08-21T05:46:29;18.40;99.90
16040;DHT22;8124;48.634;8.120;2022-08-21T05:51:32;18.80;99.90
16040;DHT22;8124;48.634;8.120;2022-08-21T05:56:37;19.10;99.90
16040;DHT22;8124;48.634;8.120;2022-08-21T06:01:40;19.10;99.90
16040;DHT22;8124;48.634;8.120;2022-08-21T06:06:43;19.30;99.90
16040;DHT22;8124;48.634;8.120;2022-08-21T06:11:47;19.30;99.90
16040;DHT22;8124;48.634;8.120;2022-08-21T06:16:50;19.40;99.90
16040;DHT22;8124;48.634;8.120;2022-08-21T06:21:53;19.70;99.90
16040;DHT22;8124;48.634;8.120;2022-08-21T06:26:57;19.80;99.90
16040;DHT22;8124;48.634;8.120;2022-08-21T06:32:01;19.90;99.90
16040;DHT22;8124;48.634;8.120;2022-08-21T06:37:04;20.00;99.90
16040;DHT22;8124;48.634;8.120;2022-08-21T06:42:14;20.20;99.90
16040;DHT22;8124;48.634;8.120;2022-08-21T06:47:18;20.30;99.90
16040;DHT22;8124;48.634;8.120;2022-08-21T06:52:21;20.40;99.90
16040;DHT22;8124;48.634;8.120;2022-08-21T06:57:25;20.60;99.90
16040;DHT22;8124;48.634;8.120;2022-08-21T07:02:28;20.70;99.90
16040;DHT22;8124;48.634;8.120;2022-08-21T07:07:31;20.90;99.90
16040;DHT22;8124;48.634;8.120;2022-08-21T07:12:36;21.10;99.90
16040;DHT22;8124;48.634;8.120;2022-08-21T07:17:39;21.30;99.90
16040;DHT22;8124;48.634;8.120;2022-08-21T07:22:42;21.50;99.90
16040;DHT22;8124;48.634;8.120;2022-08-21T07:27:47;21.60;99.90
16040;DHT22;8124;48.634;8.120;2022-08-21T07:32:50;21.70;99.90
16040;DHT22;8124;48.634;8.120;2022-08-21T07:37:53;21.60;99.90
16040;DHT22;8124;48.634;8.120;2022-08-21T07:42:57;21.90;99.90
16040;DHT22;8124;48.634;8.120;2022-08-21T07:48:01;22.20;99.90
16040;DHT22;8124;48.634;8.120;2022-08-21T07:53:04;22.20;99.90
16040;DHT22;8124;48.634;8.120;2022-08-21T07:58:08;22.00;99.90
16040;DHT22;8124;48.634;8.120;2022-08-21T08:03:11;22.10;99.90
16040;DHT22;8124;48.634;8.120;2022-08-21T08:08:21;22.60;99.90
16040;DHT22;8124;48.634;8.120;2022-08-21T08:13:26;22.80;99.90
16040;DHT22;8124;48.634;8.120;2022-08-21T08:18:29;22.80;99.90
16040;DHT22;8124;48.634;8.120;2022-08-21T08:23:32;22.70;99.90
16040;DHT22;8124;48.634;8.120;2022-08-21T08:28:36;22.60;99.90
16040;DHT22;8124;48.634;8.120;2022-08-21T08:33:39;22.80;99.90
16040;DHT22;8124;48.634;8.120;2022-08-21T08:38:43;22.90;99.90
16040;DHT22;8124;48.634;8.120;2022-08-21T08:43:51;23.10;99.90
16040;DHT22;8124;48.634;8.120;2022-08-21T08:48:58;23.40;99.90
16040;DHT22;8124;48.634;8.120;2022-08-21T08:54:09;23.20;99.90
16040;DHT22;8124;48.634;8.120;2022-08-21T08:59:18;23.10;99.90
16040;DHT22;8124;48.634;8.120;2022-08-21T09:04:24;23.20;99.90
16040;DHT22;8124;48.634;8.120;2022-08-21T09:09:38;23.50;99.90
16040;DHT22;8124;48.634;8.120;2022-08-21T09:15:09;23.50;99.90
16040;DHT22;8124;48.634;8.120;2022-08-21T09:20:28;23.90;99.90
16040;DHT22;8124;48.634;8.120;2022-08-21T09:25:42;23.90;99.90
16040;DHT22;8124;48.634;8.120;2022-08-21T09:30:47;23.80;99.90
16040;DHT22;8124;48.634;8.120;2022-08-21T09:35:52;23.70;99.90
16040;DHT22;8124;48.634;8.120;2022-08-21T09:40:58;23.80;99.90
16040;DHT22;8124;48.634;8.120;2022-08-21T09:46:09;24.10;99.90
16040;DHT22;8124;48.634;8.120;2022-08-21T09:51:15;24.30;99.90
16040;DHT22;8124;48.634;8.120;2022-08-21T09:56:25;24.10;99.90
16040;DHT22;8124;48.634;8.120;2022-08-21T10:01:49;24.10;99.90
16040;DHT22;8124;48.634;8.120;2022-08-21T10:06:52;24.60;99.90
16040;DHT22;8124;48.634;8.120;2022-08-21T10:12:07;24.60;99.90
16040;DHT22;8124;48.634;8.120;2022-08-21T10:17:20;24.80;99.90
16040;DHT22;8124;48.634;8.120;2022-08-21T10:22:34;25.40;99.90
16040;DHT22;8124;48.634;8.120;2022-08-21T10:27:49;25.10;99.90
16040;DHT22;8124;48.634;8.120;2022-08-21T10:33:26;25.10;99.90
16040;DHT22;8124;48.634;8.120;2022-08-21T10:38:58;25.40;99.90
16040;DHT22;8124;48.634;8.120;2022-08-21T10:44:28;25.30;99.90
16040;DHT22;8124;48.634;8.120;2022-08-21T10:49:39;25.30;99.90
16040;DHT22;8124;48.634;8.120;2022-08-21T10:54:48;25.50;99.40
16040;DHT22;8124;48.634;8.120;2022-08-21T10:59:57;25.50;98.60
16040;DHT22;8124;48.634;8.120;2022-08-21T11:05:11;25.90;98.30
16040;DHT22;8124;48.634;8.120;2022-08-21T11:10:20;25.80;97.30
16040;DHT22;8124;48.634;8.120;2022-08-21T11:15:31;26.20;97.20
16040;DHT22;8124;48.634;8.120;2022-08-21T11:20:43;26.30;96.60
16040;DHT22;8124;48.634;8.120;2022-08-21T11:25:53;26.30;95.80
16040;DHT22;8124;48.634;8.120;2022-08-21T11:31:05;26.30;95.10
16040;DHT22;8124;48.634;8.120;2022-08-21T11:36:19;26.40;94.60
16040;DHT22;8124;48.634;8.120;2022-08-21T11:41:28;26.50;94.20
16040;DHT22;8124;48.634;8.120;2022-08-21T11:46:43;26.50;93.70
16040;DHT22;8124;48.634;8.120;2022-08-21T11:51:52;26.60;93.20
16040;DHT22;8124;48.634;8.120;2022-08-21T11:56:59;26.50;92.60
16040;DHT22;8124;48.634;8.120;2022-08-21T12:02:10;26.70;92.40
16040;DHT22;8124;48.634;8.120;2022-08-21T12:07:29;26.80;92.00
16040;DHT22;8124;48.634;8.120;2022-08-21T12:12:34;27.00;91.80
16040;DHT22;8124;48.634;8.120;2022-08-21T12:17:40;27.00;91.30
16040;DHT22;8124;48.634;8.120;2022-08-21T12:22:50;26.90;90.70
16040;DHT22;8124;48.634;8.120;2022-08-21T12:28:07;26.90;90.30
16040;DHT22;8124;48.634;8.120;2022-08-21T12:33:24;26.80;90.00
16040;DHT22;8124;48.634;8.120;2022-08-21T12:38:33;27.00;89.70
16040;DHT22;8124;48.634;8.120;2022-08-21T12:43:41;26.80;88.40
16040;DHT22;8124;48.634;8.120;2022-08-21T12:49:00;26.70;87.60
16040;DHT22;8124;48.634;8.120;2022-08-21T12:54:05;27.00;87.70
16040;DHT22;8124;48.634;8.120;2022-08-21T12:59:12;27.20;87.40
16040;DHT22;8124;48.634;8.120;2022-08-21T13:04:17;27.20;86.80
16040;DHT22;8124;48.634;8.120;2022-08-21T13:09:27;27.40;86.70
16040;DHT22;8124;48.634;8.120;2022-08-21T13:14:35;27.60;86.30
16040;DHT22;8124;48.634;8.120;2022-08-21T13:19:56;27.60;85.60
16040;DHT22;8124;48.634;8.120;2022-08-21T13:25:02;27.60;84.80
16040;DHT22;8124;48.634;8.120;2022-08-21T13:30:11;28.10;85.10
16040;DHT22;8124;48.634;8.120;2022-08-21T13:35:18;28.00;84.30
16040;DHT22;8124;48.634;8.120;2022-08-21T13:40:26;28.10;83.50
16040;DHT22;8124;48.634;8.120;2022-08-21T13:45:32;28.20;83.10
16040;DHT22;8124;48.634;8.120;2022-08-21T13:50:37;28.20;82.40
16040;DHT22;8124;48.634;8.120;2022-08-21T13:55:43;28.20;81.80
16040;DHT22;8124;48.634;8.120;2022-08-21T14:00:49;28.10;81.00
16040;DHT22;8124;48.634;8.120;2022-08-21T14:05:53;28.10;80.30
16040;DHT22;8124;48.634;8.120;2022-08-21T14:10:58;28.10;79.70
16040;DHT22;8124;48.634;8.120;2022-08-21T14:16:03;28.40;79.70
16040;DHT22;8124;48.634;8.120;2022-08-21T14:21:12;28.20;78.80
16040;DHT22;8124;48.634;8.120;2022-08-21T14:26:17;28.30;78.40
16040;DHT22;8124;48.634;8.120;2022-08-21T14:31:27;28.30;77.80
16040;DHT22;8124;48.634;8.120;2022-08-21T14:36:31;28.50;77.70
16040;DHT22;8124;48.634;8.120;2022-08-21T14:41:37;28.60;77.40
16040;DHT22;8124;48.634;8.120;2022-08-21T14:46:40;28.80;77.40
16040;DHT22;8124;48.634;8.120;2022-08-21T14:51:57;28.80;76.90
16040;DHT22;8124;48.634;8.120;2022-08-21T14:57:04;28.70;76.20
16040;DHT22;8124;48.634;8.120;2022-08-21T15:02:08;28.60;75.50
16040;DHT22;8124;48.634;8.120;2022-08-21T15:07:11;28.50;74.80
16040;DHT22;8124;48.634;8.120;2022-08-21T15:12:15;28.60;74.40
16040;DHT22;8124;48.634;8.120;2022-08-21T15:17:18;28.70;74.10
16040;DHT22;8124;48.634;8.120;2022-08-21T15:22:21;28.80;73.70
16040;DHT22;8124;48.634;8.120;2022-08-21T15:27:30;29.00;73.50
16040;DHT22;8124;48.634;8.120;2022-08-21T15:32:33;29.00;73.20
16040;DHT22;8124;48.634;8.120;2022-08-21T15:37:36;28.80;72.40
16040;DHT22;8124;48.634;8.120;2022-08-21T15:42:42;28.80;72.00
16040;DHT22;8124;48.634;8.120;2022-08-21T15:47:49;29.10;72.30
16040;DHT22;8124;48.634;8.120;2022-08-21T15:52:52;29.00;71.70
16040;DHT22;8124;48.634;8.120;2022-08-21T15:57:58;28.90;71.20
16040;DHT22;8124;48.634;8.120;2022-08-21T16:03:08;28.80;70.60
16040;DHT22;8124;48.634;8.120;2022-08-21T16:08:13;29.00;70.60
16040;DHT22;8124;48.634;8.120;2022-08-21T16:13:21;29.10;70.60
16040;DHT22;8124;48.634;8.120;2022-08-21T16:18:26;29.20;70.30
16040;DHT22;8124;48.634;8.120;2022-08-21T16:23:29;29.20;69.90
16040;DHT22;8124;48.634;8.120;2022-08-21T16:28:35;29.40;69.70
16040;DHT22;8124;48.634;8.120;2022-08-21T16:33:41;29.20;69.10
16040;DHT22;8124;48.634;8.120;2022-08-21T16:38:45;28.80;68.20
16040;DHT22;8124;48.634;8.120;2022-08-21T16:43:50;28.90;68.10
16040;DHT22;8124;48.634;8.120;2022-08-21T16:48:53;28.90;67.90
16040;DHT22;8124;48.634;8.120;2022-08-21T16:53:56;28.90;67.60
16040;DHT22;8124;48.634;8.120;2022-08-21T16:59:01;29.00;67.50
16040;DHT22;8124;48.634;8.120;2022-08-21T17:04:04;28.80;67.00
16040;DHT22;8124;48.634;8.120;2022-08-21T17:09:10;28.60;66.50
16040;DHT22;8124;48.634;8.120;2022-08-21T17:14:17;28.50;66.10
16040;DHT22;8124;48.634;8.120;2022-08-21T17:19:21;28.40;65.80
16040;DHT22;8124;48.634;8.120;2022-08-21T17:24:24;28.30;65.50
16040;DHT22;8124;48.634;8.120;2022-08-21T17:29:32;28.30;65.30
16040;DHT22;8124;48.634;8.120;2022-08-21T17:34:36;28.60;65.70
16040;DHT22;8124;48.634;8.120;2022-08-21T17:39:39;28.60;65.60
16040;DHT22;8124;48.634;8.120;2022-08-21T17:44:45;28.60;65.60
16040;DHT22;8124;48.634;8.120;2022-08-21T17:49:48;28.70;65.50
16040;DHT22;8124;48.634;8.120;2022-08-21T17:54:51;28.70;65.60
16040;DHT22;8124;48.634;8.120;2022-08-21T17:59:55;28.60;65.60
16040;DHT22;8124;48.634;8.120;2022-08-21T18:04:59;28.60;65.70
16040;DHT22;8124;48.634;8.120;2022-08-21T18:10:05;28.70;65.70
16040;DHT22;8124;48.634;8.120;2022-08-21T18:15:11;28.50;65.40
16040;DHT22;8124;48.634;8.120;2022-08-21T18:20:17;28.20;65.10
16040;DHT22;8124;48.634;8.120;2022-08-21T18:25:20;28.10;65.00
16040;DHT22;8124;48.634;8.120;2022-08-21T18:30:24;27.90;64.90
16040;DHT22;8124;48.634;8.120;2022-08-21T18:35:27;27.80;65.10
16040;DHT22;8124;48.634;8.120;2022-08-21T18:40:34;27.60;65.30
16040;DHT22;8124;48.634;8.120;2022-08-21T18:45:40;27.50;65.60
16040;DHT22;8124;48.634;8.120;2022-08-21T18:50:45;27.30;65.80
16040;DHT22;8124;48.634;8.120;2022-08-21T18:55:48;27.20;66.00
16040;DHT22;8124;48.634;8.120;2022-08-21T19:00:53;27.10;66.40
16040;DHT22;8124;48.634;8.120;2022-08-21T19:05:56;26.80;66.40
16040;DHT22;8124;48.634;8.120;2022-08-21T19:10:59;26.60;66.60
16040;DHT22;8124;48.634;8.120;2022-08-21T19:16:07;26.50;67.00
16040;DHT22;8124;48.634;8.120;2022-08-21T19:21:10;26.40;67.50
16040;DHT22;8124;48.634;8.120;2022-08-21T19:26:15;26.10;67.80
16040;DHT22;8124;48.634;8.120;2022-08-21T19:31:23;25.80;68.90
16040;DHT22;8124;48.634;8.120;2022-08-21T19:36:29;25.90;69.20
16040;DHT22;8124;48.634;8.120;2022-08-21T19:41:36;25.80;69.90
16040;DHT22;8124;48.634;8.120;2022-08-21T19:46:43;25.60;70.20
16040;DHT22;8124;48.634;8.120;2022-08-21T19:51:50;25.70;71.10
16040;DHT22;8124;48.634;8.120;2022-08-21T19:56:55;25.60;71.60
16040;DHT22;8124;48.634;8.120;2022-08-21T20:02:00;25.60;72.30
16040;DHT22;8124;48.634;8.120;2022-08-21T20:07:03;25.20;72.10
16040;DHT22;8124;48.634;8.120;2022-08-21T20:12:11;25.00;72.20
16040;DHT22;8124;48.634;8.120;2022-08-21T20:17:17;24.90;72.50
16040;DHT22;8124;48.634;8.120;2022-08-21T20:22:21;24.80;73.40
16040;DHT22;8124;48.634;8.120;2022-08-21T20:27:27;24.90;74.30
16040;DHT22;8124;48.634;8.120;2022-08-21T20:32:31;24.90;75.30
16040;DHT22;8124;48.634;8.120;2022-08-21T20:37:34;25.10;76.60
16040;DHT22;8124;48.634;8.120;2022-08-21T20:42:57;25.10;77.30
16040;DHT22;8124;48.634;8.120;2022-08-21T20:48:04;25.00;78.00
16040;DHT22;8124;48.634;8.120;2022-08-21T20:53:13;25.10;78.70
16040;DHT22;8124;48.634;8.120;2022-08-21T20:58:26;25.10;79.50
16040;DHT22;8124;48.634;8.120;2022-08-21T21:03:34;24.90;80.10
16040;DHT22;8124;48.634;8.120;2022-08-21T21:08:44;24.90;80.40
16040;DHT22;8124;48.634;8.120;2022-08-21T21:13:53;24.90;80.70
16040;DHT22;8124;48.634;8.120;2022-08-21T21:19:01;24.80;81.30
16040;DHT22;8124;48.634;8.120;2022-08-21T21:24:09;24.80;82.30
16040;DHT22;8124;48.634;8.120;2022-08-21T21:29:17;24.80;82.90
16040;DHT22;8124;48.634;8.120;2022-08-21T21:34:24;24.80;83.10
16040;DHT22;8124;48.634;8.120;2022-08-21T21:39:30;24.70;83.40
16040;DHT22;8124;48.634;8.120;2022-08-21T21:44:53;24.60;83.60
16040;DHT22;8124;48.634;8.120;2022-08-21T21:50:20;24.60;83.90
16040;DHT22;8124;48.634;8.120;2022-08-21T21:55:40;24.50;84.50
16040;DHT22;8124;48.634;8.120;2022-08-21T22:00:53;24.40;84.60
16040;DHT22;8124;48.634;8.120;2022-08-21T22:06:06;24.20;84.30
16040;DHT22;8124;48.634;8.120;2022-08-21T22:11:16;24.20;84.50
16040;DHT22;8124;48.634;8.120;2022-08-21T22:16:30;24.20;84.60
16040;DHT22;8124;48.634;8.120;2022-08-21T22:21:38;24.20;84.90
16040;DHT22;8124;48.634;8.120;2022-08-21T22:26:46;24.30;85.30
16040;DHT22;8124;48.634;8.120;2022-08-21T22:32:01;24.30;85.60
16040;DHT22;8124;48.634;8.120;2022-08-21T22:37:09;24.00;85.20
16040;DHT22;8124;48.634;8.120;2022-08-21T22:42:21;23.50;85.30
16040;DHT22;8124;48.634;8.120;2022-08-21T22:47:32;23.10;85.50
16040;DHT22;8124;48.634;8.120;2022-08-21T22:52:44;23.40;87.10
16040;DHT22;8124;48.634;8.120;2022-08-21T22:58:00;23.70;88.20
16040;DHT22;8124;48.634;8.120;2022-08-21T23:03:05;23.80;89.00
16040;DHT22;8124;48.634;8.120;2022-08-21T23:09:33;23.70;89.90
16040;DHT22;8124;48.634;8.120;2022-08-21T23:14:38;23.70;90.30
16040;DHT22;8124;48.634;8.120;2022-08-21T23:19:54;23.60;90.60
16040;DHT22;8124;48.634;8.120;2022-08-21T23:25:10;23.50;90.90
16040;DHT22;8124;48.634;8.120;2022-08-21T23:30:23;23.00;90.70
16040;DHT22;8124;48.634;8.120;2022-08-21T23:35:34;22.80;91.10
16040;DHT22;8124;48.634;8.120;2022-08-21T23:41:09;22.80;92.20
16040;DHT22;8124;48.634;8.120;2022-08-21T23:46:43;23.20;93.10
16040;DHT22;8124;48.634;8.120;2022-08-21T23:51:58;23.10;94.00
16040;DHT22;8124;48.634;8.120;2022-08-21T23:57:14;23.00;94.50
